Time;durP1;ratioP1;P1;durP2;ratioP2;P2;SDS_P1;SDS_P2;PMS_P1;PMS_P2;Temp;Humidity;BMP_temperature;BMP_pressure;BME280_temperature;BME280_humidity;BME280_pressure;Samples;Min_cycle;Max_cycle;Signal;HPM_P1;HPM_P2
2022/06/26 00:01:00;;;;;;;1.67;0.98;;;;;;;19.52;77.24;98275.78;4121063;28;20281;-54
2022/06/26 00:03:01;;;;;;;0.68;0.65;;;;;;;19.37;78.11;98285.28;4120285;28;20206;-54
2022/06/26 00:05:04;;;;;;;0.77;0.70;;;;;;;19.43;77.58;98288.75;4119489;28;20701;-54
2022/06/26 00:07:05;;;;;;;2.45;1.13;;;;;;;19.50;77.30;98289.13;4126027;28;20300;-55
2022/06/26 00:09:07;;;;;;;2.97;1.23;;;;;;;19.48;78.04;98285.88;4121523;28;20314;-54
2022/06/26 00:11:09;;;;;;;5.70;1.08;;;;;;;19.54;77.77;98290.16;4121435;28;21538;-54
2022/06/26 00:13:10;;;;;;;1.42;0.90;;;;;;;19.57;77.55;98289.56;4121636;28;20210;-55
2022/06/26 00:15:12;;;;;;;2.45;0.93;;;;;;;19.61;77.28;98301.66;4119270;28;20652;-53
2022/06/26 00:17:14;;;;;;;0.65;0.60;;;;;;;19.60;77.44;98302.78;4122973;28;20694;-54
2022/06/26 00:19:15;;;;;;;0.75;0.70;;;;;;;19.62;77.25;98293.03;4123477;28;20269;-54
2022/06/26 00:21:17;;;;;;;1.10;0.88;;;;;;;19.66;77.12;98294.03;4122792;28;20210;-54
2022/06/26 00:23:19;;;;;;;1.25;0.80;;;;;;;19.69;77.34;98295.34;4121222;28;20207;-54
2022/06/26 00:25:20;;;;;;;1.45;0.90;;;;;;;19.69;77.26;98309.22;4124162;28;20301;-54
2022/06/26 00:27:22;;;;;;;1.20;0.93;;;;;;;19.69;77.43;98303.69;4120521;28;20730;-54
2022/06/26 00:29:23;;;;;;;2.25;0.70;;;;;;;19.65;77.27;98297.13;4121303;28;20841;-54
2022/06/26 00:31:25;;;;;;;1.90;1.10;;;;;;;19.70;77.09;98313.66;4137366;28;20208;-54
2022/06/26 00:33:27;;;;;;;3.33;1.00;;;;;;;19.64;77.54;98312.16;4123784;28;20635;-55
2022/06/26 00:35:29;;;;;;;1.00;0.85;;;;;;;19.67;77.29;98317.06;4121628;28;20209;-54
2022/06/26 00:37:31;;;;;;;1.17;0.82;;;;;;;19.66;76.85;98320.97;4123189;28;20296;-54
2022/06/26 00:39:33;;;;;;;2.30;1.10;;;;;;;19.64;77.10;98317.72;4119590;28;20211;-54
2022/06/26 00:41:34;;;;;;;2.10;0.85;;;;;;;19.69;76.97;98325.91;4123193;28;20297;-54
2022/06/26 00:43:36;;;;;;;1.92;0.95;;;;;;;19.67;76.74;98333.72;4121104;28;20740;-54
2022/06/26 00:45:38;;;;;;;4.40;1.00;;;;;;;19.70;76.72;98338.63;4122224;28;20563;-53
2022/06/26 00:47:39;;;;;;;1.38;0.90;;;;;;;19.69;76.85;98353.66;4120195;28;20703;-53
2022/06/26 00:49:41;;;;;;;1.15;0.80;;;;;;;19.72;77.02;98358.59;4120444;28;20234;-54
2022/06/26 00:51:48;;;;;;;2.63;0.90;;;;;;;19.66;77.45;98360.66;4124903;28;20304;-53
2022/06/26 00:53:49;;;;;;;2.38;1.45;;;;;;;19.63;77.35;98363.25;4107956;28;20207;-53
2022/06/26 00:55:52;;;;;;;0.93;0.90;;;;;;;19.51;77.88;98374.09;4125191;28;20420;-54
2022/06/26 00:57:53;;;;;;;3.10;1.02;;;;;;;19.51;77.58;98358.22;4120386;28;20245;-54
2022/06/26 00:59:56;;;;;;;3.05;1.23;;;;;;;19.65;77.46;98355.44;4117042;28;20234;-54
2022/06/26 01:01:58;;;;;;;1.35;0.85;;;;;;;19.54;77.33;98356.78;4119577;28;20277;-53
2022/06/26 01:04:00;;;;;;;0.85;0.82;;;;;;;19.53;77.43;98360.69;4121697;28;20683;-54
2022/06/26 01:06:06;;;;;;;1.98;1.00;;;;;;;19.53;77.80;98371.81;4120614;28;20220;-53
2022/06/26 01:08:08;;;;;;;1.52;0.90;;;;;;;19.34;78.78;98376.66;4123937;28;20341;-53
2022/06/26 01:10:09;;;;;;;2.05;0.95;;;;;;;19.35;78.62;98381.06;4120834;28;20201;-53
2022/06/26 01:12:11;;;;;;;1.48;0.90;;;;;;;19.12;79.52;98366.25;4122675;28;20298;-54
2022/06/26 01:14:13;;;;;;;1.60;1.00;;;;;;;19.06;79.64;98361.94;4119527;28;20213;-54
2022/06/26 01:16:17;;;;;;;2.08;1.33;;;;;;;18.77;81.00;98363.38;4123369;28;20217;-53
2022/06/26 01:18:19;;;;;;;4.45;1.17;;;;;;;18.71;81.33;98350.75;4123151;28;20254;-53
2022/06/26 01:20:21;;;;;;;2.50;1.40;;;;;;;18.61;81.94;98342.59;4122331;28;20314;-54
2022/06/26 01:22:26;;;;;;;2.03;0.90;;;;;;;18.57;82.32;98352.69;4122090;28;20288;-53
2022/06/26 01:24:28;;;;;;;1.83;1.10;;;;;;;18.48;82.61;98355.31;4121231;28;20202;-53
2022/06/26 01:26:30;;;;;;;2.00;0.90;;;;;;;18.64;81.93;98347.56;4118833;28;20264;-54
2022/06/26 01:28:31;;;;;;;1.35;1.10;;;;;;;18.78;81.42;98348.38;4120927;28;20226;-53
2022/06/26 01:30:33;;;;;;;3.08;1.30;;;;;;;18.87;81.03;98347.38;4116043;28;20302;-55
2022/06/26 01:32:35;;;;;;;1.20;1.10;;;;;;;18.96;80.60;98347.47;4134775;28;20209;-53
2022/06/26 01:34:37;;;;;;;1.70;1.20;;;;;;;19.04;80.22;98338.44;4118671;28;20279;-54
2022/06/26 01:36:39;;;;;;;1.85;0.80;;;;;;;19.16;79.74;98342.31;4135643;28;20261;-53
2022/06/26 01:38:40;;;;;;;1.10;1.00;;;;;;;19.17;79.27;98345.94;4119915;28;20230;-54
2022/06/26 01:40:44;;;;;;;0.90;0.90;;;;;;;19.20;79.01;98345.34;4121176;28;20233;-54
2022/06/26 01:42:45;;;;;;;1.02;0.93;;;;;;;19.22;78.95;98356.94;4120252;28;20203;-53
2022/06/26 01:44:47;;;;;;;3.40;1.00;;;;;;;19.25;78.84;98348.00;4123700;28;20206;-53
2022/06/26 01:46:49;;;;;;;3.42;1.00;;;;;;;19.25;78.54;98348.00;4122421;28;20223;-53
2022/06/26 01:48:51;;;;;;;1.10;1.00;;;;;;;19.25;78.77;98350.78;4121996;28;20264;-57
2022/06/26 01:50:55;;;;;;;2.45;1.10;;;;;;;19.24;78.59;98358.28;4122064;28;20245;-54
2022/06/26 01:52:56;;;;;;;2.95;1.00;;;;;;;19.25;78.77;98348.00;4121826;28;20301;-53
2022/06/26 01:54:58;;;;;;;3.60;1.08;;;;;;;19.27;78.66;98351.28;4121061;28;20797;-53
2022/06/26 01:57:00;;;;;;;3.83;0.82;;;;;;;19.27;78.65;98351.28;4124021;28;20297;-53
2022/06/26 01:59:01;;;;;;;1.10;1.00;;;;;;;19.21;78.91;98352.53;4138410;28;20323;-57
2022/06/26 02:01:05;;;;;;;2.20;1.02;;;;;;;19.11;79.46;98352.72;4123208;28;20218;-53
2022/06/26 02:03:07;;;;;;;7.18;1.15;;;;;;;19.09;79.61;98355.78;4122693;28;20332;-54
2022/06/26 02:05:09;;;;;;;1.08;0.90;;;;;;;19.01;79.76;98347.34;4121122;28;20207;-55
2022/06/26 02:07:11;;;;;;;1.77;1.13;;;;;;;19.05;79.57;98348.41;4128876;28;20210;-55
2022/06/26 02:13:36;;;;;;;3.35;1.08;;;;;;;19.08;79.28;98358.88;4121234;28;20230;-53
2022/06/26 02:13:55;;;;;;;2.17;1.10;;;;;;;19.02;80.30;98355.38;4120901;28;20264;-53
2022/06/26 02:15:57;;;;;;;3.00;1.23;;;;;;;19.03;79.68;98356.19;4120213;28;20214;-54
2022/06/26 02:17:58;;;;;;;3.55;1.17;;;;;;;19.12;79.77;98354.34;4119442;28;20667;-54
2022/06/26 02:20:00;;;;;;;1.42;1.10;;;;;;;19.04;79.50;98366.19;4118177;28;20203;-55
2022/06/26 02:22:01;;;;;;;0.80;0.80;;;;;;;19.05;79.49;98370.59;4117674;28;20660;-54
2022/06/26 02:24:03;;;;;;;2.97;1.20;;;;;;;19.04;79.48;98369.75;4117402;28;20726;-55
2022/06/26 02:26:09;;;;;;;2.15;1.80;;;;;;;19.07;79.24;98363.59;4119725;28;20289;-54
2022/06/26 02:28:11;;;;;;;1.70;1.10;;;;;;;19.04;79.31;98363.41;4119165;28;20272;-54
2022/06/26 02:30:12;;;;;;;3.63;0.93;;;;;;;19.10;79.24;98356.59;4121490;28;20198;-53
2022/06/26 02:32:14;;;;;;;2.22;1.20;;;;;;;18.98;79.81;98353.53;4119575;28;20645;-53
2022/06/26 02:34:15;;;;;;;1.42;1.25;;;;;;;19.01;79.60;98352.91;4120102;28;20252;-54
2022/06/26 02:36:17;;;;;;;1.80;0.90;;;;;;;19.05;79.39;98356.72;4118768;28;20292;-53
2022/06/26 02:38:19;;;;;;;1.00;0.90;;;;;;;19.01;79.28;98344.59;4117624;28;20226;-54
2022/06/26 02:40:21;;;;;;;1.85;1.02;;;;;;;19.06;79.19;98345.28;4117799;28;20236;-54
2022/06/26 02:42:23;;;;;;;1.58;1.10;;;;;;;18.93;79.50;98350.84;4117721;28;20865;-53
2022/06/26 02:44:25;;;;;;;0.90;0.90;;;;;;;18.73;80.45;98340.16;4118418;28;20305;-55
2022/06/26 02:46:26;;;;;;;1.25;1.15;;;;;;;18.76;79.96;98342.31;4118719;28;20329;-54
2022/06/26 02:48:28;;;;;;;1.05;1.02;;;;;;;18.73;80.19;98334.63;4117801;28;20268;-54
2022/06/26 02:50:30;;;;;;;0.90;0.77;;;;;;;18.75;79.89;98337.91;4117091;28;20304;-54
2022/06/26 02:52:32;;;;;;;1.60;1.30;;;;;;;18.77;79.56;98341.22;4119036;28;20203;-54
2022/06/26 02:54:34;;;;;;;2.63;1.15;;;;;;;18.81;79.71;98347.75;4119791;28;20287;-56
2022/06/26 02:56:35;;;;;;;2.13;1.90;;;;;;;18.82;79.47;98343.84;4118863;28;20197;-55
2022/06/26 02:58:37;;;;;;;0.70;0.70;;;;;;;18.84;79.51;98336.06;4120799;28;20314;-53
2022/06/26 03:00:38;;;;;;;1.05;0.95;;;;;;;18.82;79.34;98338.31;4117230;28;20227;-54
2022/06/26 03:02:40;;;;;;;7.03;1.27;;;;;;;18.80;79.68;98338.66;4119087;28;20568;-53
2022/06/26 03:04:42;;;;;;;1.67;0.85;;;;;;;18.80;79.62;98335.03;4119698;28;20214;-53
2022/06/26 03:06:44;;;;;;;0.98;0.95;;;;;;;18.74;79.76;98334.31;4120154;28;20861;-54
2022/06/26 03:08:45;;;;;;;1.23;1.00;;;;;;;18.72;79.81;98339.31;4136586;28;20308;-54
2022/06/26 03:10:49;;;;;;;2.22;1.20;;;;;;;18.71;79.80;98347.97;4121548;28;20229;-54
2022/06/26 03:12:50;;;;;;;1.42;1.08;;;;;;;18.69;79.67;98351.03;4122454;28;20202;-54
2022/06/26 03:14:52;;;;;;;1.48;0.90;;;;;;;18.70;79.74;98343.53;4121175;28;20221;-54
2022/06/26 03:16:54;;;;;;;1.95;0.98;;;;;;;18.70;79.32;98351.84;4119862;28;20219;-54
2022/06/26 03:18:55;;;;;;;1.20;0.82;;;;;;;18.70;79.46;98362.94;4119477;28;20265;-53
2022/06/26 03:20:57;;;;;;;1.10;0.80;;;;;;;18.81;79.43;98356.09;4119345;28;20320;-53
2022/06/26 03:22:58;;;;;;;1.13;1.00;;;;;;;18.78;79.24;98356.72;4117445;28;20289;-54
2022/06/26 03:25:00;;;;;;;2.95;1.00;;;;;;;18.62;79.77;98355.34;4119209;28;20273;-54
2022/06/26 03:27:02;;;;;;;1.05;0.88;;;;;;;18.55;80.09;98357.69;4117397;28;20211;-55
2022/06/26 03:29:07;;;;;;;1.45;1.00;;;;;;;18.49;80.47;98354.19;4117858;28;20309;-54
2022/06/26 03:31:08;;;;;;;1.65;1.00;;;;;;;18.41;80.50;98360.44;4121571;28;20211;-54
2022/06/26 03:33:10;;;;;;;2.40;1.13;;;;;;;18.51;80.27;98346.38;4117899;28;20294;-54
2022/06/26 03:35:11;;;;;;;1.20;0.98;;;;;;;18.48;80.10;98335.09;4118644;28;20218;-54
2022/06/26 03:37:13;;;;;;;2.78;1.08;;;;;;;18.51;79.92;98337.28;4117304;28;20294;-53
2022/06/26 03:39:14;;;;;;;1.38;0.85;;;;;;;18.53;79.69;98337.78;4116514;28;20231;-54
2022/06/26 03:41:16;;;;;;;1.20;0.98;;;;;;;18.54;79.82;98343.03;4118809;28;20220;-54
2022/06/26 03:43:18;;;;;;;2.15;1.20;;;;;;;18.47;80.44;98350.09;4116945;28;20202;-53
2022/06/26 03:45:19;;;;;;;2.00;1.30;;;;;;;18.52;80.12;98352.78;4119978;28;20205;-54
2022/06/26 03:47:21;;;;;;;3.78;1.20;;;;;;;18.55;79.84;98354.91;4120693;28;20230;-54
2022/06/26 03:49:23;;;;;;;2.95;1.13;;;;;;;18.59;79.65;98361.50;4119753;28;20711;-53
2022/06/26 03:51:25;;;;;;;2.05;0.93;;;;;;;18.56;79.71;98351.00;4122048;28;20718;-53
2022/06/26 03:53:26;;;;;;;1.08;0.93;;;;;;;18.47;80.44;98363.94;4119355;28;20606;-55
2022/06/26 03:55:28;;;;;;;1.63;1.15;;;;;;;18.47;80.01;98363.94;4118132;28;20216;-54
2022/06/26 03:57:29;;;;;;;1.13;0.98;;;;;;;18.49;80.04;98372.75;4118908;28;20743;-55
2022/06/26 03:59:32;;;;;;;3.22;1.10;;;;;;;18.54;79.91;98370.75;4117430;28;20643;-56
2022/06/26 04:01:34;;;;;;;1.75;1.08;;;;;;;18.37;80.82;98372.41;4122178;28;20779;-54
2022/06/26 04:03:35;;;;;;;1.08;1.08;;;;;;;18.43;80.59;98371.19;4119758;28;20682;-54
2022/06/26 04:05:37;;;;;;;1.58;1.00;;;;;;;18.36;80.69;98374.38;4117442;28;20337;-54
2022/06/26 04:07:38;;;;;;;2.00;1.17;;;;;;;18.27;81.40;98370.63;4115694;28;20199;-54
2022/06/26 04:09:40;;;;;;;1.50;1.20;;;;;;;18.31;80.99;98370.88;4119221;28;20212;-54
2022/06/26 04:11:42;;;;;;;2.45;1.00;;;;;;;18.33;80.84;98369.44;4119755;28;20294;-53
2022/06/26 04:13:44;;;;;;;1.00;1.00;;;;;;;18.36;80.74;98379.09;4120865;28;20249;-54
2022/06/26 04:15:46;;;;;;;2.70;1.00;;;;;;;18.41;80.36;98370.69;4119147;28;20232;-55
2022/06/26 04:17:47;;;;;;;1.30;1.05;;;;;;;18.41;80.17;98363.22;4114405;28;20217;-55
2022/06/26 04:19:49;;;;;;;1.25;1.15;;;;;;;18.45;80.12;98366.19;4120625;28;20212;-53
2022/06/26 04:21:50;;;;;;;1.20;1.10;;;;;;;18.47;79.76;98366.72;4124391;28;20302;-54
2022/06/26 04:23:52;;;;;;;2.15;1.52;;;;;;;18.42;79.96;98359.31;4120585;28;20719;-54
2022/06/26 04:25:54;;;;;;;1.33;1.00;;;;;;;18.37;80.35;98359.41;4118597;28;20293;-54
2022/06/26 04:27:56;;;;;;;1.50;1.20;;;;;;;18.38;80.23;98363.00;4120981;28;20237;-54
2022/06/26 04:29:57;;;;;;;1.20;1.10;;;;;;;18.42;79.94;98369.56;4119063;28;20210;-59
2022/06/26 04:31:59;;;;;;;0.90;0.90;;;;;;;18.44;79.91;98376.44;4133709;28;20229;-55
2022/06/26 04:34:01;;;;;;;2.72;1.25;;;;;;;18.43;79.97;98377.56;4119775;28;20660;-58
2022/06/26 04:36:02;;;;;;;2.30;1.02;;;;;;;18.37;80.19;98372.41;4121463;28;20249;-56
2022/06/26 04:38:04;;;;;;;0.95;0.77;;;;;;;18.40;80.32;98375.44;4119386;28;20223;-56
2022/06/26 04:40:08;;;;;;;1.20;1.10;;;;;;;18.50;79.60;98379.94;4119059;28;20296;-55
2022/06/26 04:42:10;;;;;;;1.08;0.98;;;;;;;18.44;80.07;98386.72;4117403;28;20321;-56
2022/06/26 04:44:12;;;;;;;1.85;1.15;;;;;;;18.48;80.13;98387.75;4121201;28;20289;-56
2022/06/26 04:46:13;;;;;;;1.08;1.00;;;;;;;18.44;80.07;98386.72;4120500;28;20202;-54
2022/06/26 04:48:15;;;;;;;1.90;1.15;;;;;;;18.35;80.89;98394.06;4122986;28;20249;-55
2022/06/26 04:50:16;;;;;;;1.40;1.30;;;;;;;18.47;80.08;98398.03;4120147;28;20667;-56
2022/06/26 04:52:18;;;;;;;1.50;1.27;;;;;;;18.40;80.66;98385.69;4120738;28;20293;-54
2022/06/26 04:54:19;;;;;;;1.67;1.17;;;;;;;18.44;80.37;98375.66;4123865;28;20407;-55
2022/06/26 04:56:21;;;;;;;1.15;1.05;;;;;;;18.44;80.10;98375.66;4121073;28;21301;-55
2022/06/26 04:58:23;;;;;;;1.70;1.05;;;;;;;18.51;79.86;98367.75;4121707;28;20309;-53
2022/06/26 05:00:24;;;;;;;2.15;1.15;;;;;;;18.49;79.71;98378.31;4123567;28;20328;-54
2022/06/26 05:02:26;;;;;;;1.13;1.00;;;;;;;18.47;80.12;98375.84;4124237;28;20227;-57
2022/06/26 05:04:28;;;;;;;1.40;1.10;;;;;;;18.52;79.83;98372.16;4125164;28;20202;-55
2022/06/26 05:06:29;;;;;;;2.67;1.02;;;;;;;18.54;79.76;98381.00;4126521;28;20241;-54
2022/06/26 05:08:31;;;;;;;2.67;1.40;;;;;;;18.53;79.90;98391.25;4124937;28;20317;-53
2022/06/26 05:10:33;;;;;;;1.77;1.25;;;;;;;18.52;80.06;98399.88;4118488;28;20202;-54
2022/06/26 05:12:34;;;;;;;2.15;0.93;;;;;;;18.49;80.19;98389.38;4123921;28;20202;-55
2022/06/26 05:14:36;;;;;;;2.20;1.35;;;;;;;18.40;80.79;98399.53;4125131;28;20297;-53
2022/06/26 05:16:37;;;;;;;3.15;1.77;;;;;;;18.35;81.27;98407.94;4122446;28;20206;-55
2022/06/26 05:18:39;;;;;;;2.28;1.08;;;;;;;18.40;81.19;98408.69;4122306;28;20221;-55
2022/06/26 05:20:41;;;;;;;3.88;1.23;;;;;;;18.46;80.83;98407.44;4123255;28;20295;-55
2022/06/26 05:22:42;;;;;;;1.67;1.13;;;;;;;18.42;81.25;98406.44;4119287;28;20329;-56
2022/06/26 05:24:44;;;;;;;1.35;1.10;;;;;;;18.57;81.24;98402.56;4118730;28;20231;-54
2022/06/26 05:26:46;;;;;;;2.22;1.20;;;;;;;18.65;80.81;98394.34;4119866;28;20199;-53
2022/06/26 05:28:48;;;;;;;4.93;1.10;;;;;;;18.76;80.32;98395.81;4116680;28;20226;-53
2022/06/26 05:30:50;;;;;;;2.15;0.90;;;;;;;18.83;80.11;98412.06;4122921;28;20214;-53
2022/06/26 05:32:51;;;;;;;2.88;1.20;;;;;;;18.89;79.88;98419.97;4121480;28;20297;-57
2022/06/26 05:34:53;;;;;;;1.70;1.20;;;;;;;18.97;79.88;98429.56;4122128;28;20301;-53
2022/06/26 05:36:54;;;;;;;1.95;1.17;;;;;;;19.10;79.64;98428.72;4117092;28;20210;-54
2022/06/26 05:38:56;;;;;;;2.03;1.35;;;;;;;19.02;80.02;98415.56;4120086;28;20277;-56
2022/06/26 05:40:57;;;;;;;1.73;1.17;;;;;;;18.99;79.82;98421.75;4122825;28;20203;-53
2022/06/26 05:42:59;;;;;;;1.35;1.25;;;;;;;18.81;80.38;98428.19;4119673;28;20217;-54
2022/06/26 05:45:01;;;;;;;3.67;1.27;;;;;;;18.91;80.83;98428.00;4119729;28;20317;-56
2022/06/26 05:47:04;;;;;;;4.53;1.60;;;;;;;19.02;80.31;98419.19;4118631;28;20666;-57
2022/06/26 05:49:12;;;;;;;2.60;1.70;;;;;;;19.27;80.10;98428.97;4120245;28;20715;-55
2022/06/26 05:51:14;;;;;;;2.17;1.98;;;;;;;19.57;79.04;98439.47;4117898;28;20209;-55
2022/06/26 05:53:15;;;;;;;3.28;1.90;;;;;;;19.80;78.01;98439.25;4120428;28;20234;-56
2022/06/26 05:55:17;;;;;;;2.35;1.80;;;;;;;20.03;77.34;98448.41;4120745;28;20206;-55
2022/06/26 05:57:22;;;;;;;2.10;1.90;;;;;;;20.07;77.09;98449.47;4119392;28;20237;-56
2022/06/26 05:59:23;;;;;;;3.20;1.70;;;;;;;20.25;76.03;98457.66;4121529;28;20705;-56
2022/06/26 06:01:25;;;;;;;3.22;1.77;;;;;;;20.43;75.60;98459.44;4117284;28;20251;-54
2022/06/26 06:03:26;;;;;;;8.05;1.60;;;;;;;20.27;75.25;98454.56;4119772;28;20211;-55
2022/06/26 06:05:28;;;;;;;1.85;1.73;;;;;;;20.38;75.33;98467.09;4118379;28;20244;-55
2022/06/26 06:07:30;;;;;;;4.93;1.70;;;;;;;20.60;75.16;98458.75;4121374;28;20238;-56
2022/06/26 06:09:32;;;;;;;4.28;1.83;;;;;;;20.42;75.04;98462.53;4121305;28;20215;-56
2022/06/26 06:11:34;;;;;;;4.57;2.20;;;;;;;20.43;74.53;98470.56;4120114;28;20327;-58
2022/06/26 06:13:35;;;;;;;3.35;2.30;;;;;;;20.32;75.28;98474.72;4120589;28;20691;-55
2022/06/26 06:15:37;;;;;;;4.15;1.85;;;;;;;20.53;74.31;98473.13;4121110;28;20242;-55
2022/06/26 06:17:40;;;;;;;4.75;2.53;;;;;;;20.71;73.54;98474.88;4121228;28;20578;-56
2022/06/26 06:19:42;;;;;;;2.78;2.58;;;;;;;20.66;73.33;98468.63;4118662;28;20288;-55
2022/06/26 06:21:43;;;;;;;3.47;2.28;;;;;;;20.65;72.44;98486.44;4119819;28;20272;-54
2022/06/26 06:23:45;;;;;;;2.55;2.35;;;;;;;20.78;72.84;98493.91;4120273;28;20206;-55
2022/06/26 06:25:47;;;;;;;2.63;1.95;;;;;;;20.97;73.06;98502.91;4120296;28;20218;-56
2022/06/26 06:27:48;;;;;;;4.07;2.20;;;;;;;20.72;71.54;98500.75;4119850;28;20205;-56
2022/06/26 06:29:50;;;;;;;2.75;2.03;;;;;;;20.92;71.87;98501.06;4118207;28;20205;-55
2022/06/26 06:31:51;;;;;;;1.90;1.63;;;;;;;20.88;72.26;98510.38;4117376;28;20198;-57
2022/06/26 06:33:53;;;;;;;2.42;1.65;;;;;;;21.09;71.08;98505.91;4119769;28;20795;-56
2022/06/26 06:35:55;;;;;;;2.90;2.00;;;;;;;21.27;71.10;98507.66;4116302;28;20935;-56
2022/06/26 06:37:57;;;;;;;3.90;1.77;;;;;;;21.33;70.82;98506.41;4120219;28;20229;-55
2022/06/26 06:39:59;;;;;;;3.15;1.77;;;;;;;21.42;70.02;98504.47;4118956;28;20304;-56
2022/06/26 06:42:00;;;;;;;1.85;1.67;;;;;;;21.26;70.48;98509.66;4121104;28;20221;-55
2022/06/26 06:44:02;;;;;;;1.48;1.38;;;;;;;21.34;69.43;98519.19;4117542;28;20666;-56
2022/06/26 06:46:03;;;;;;;1.70;1.60;;;;;;;21.42;69.53;98510.03;4121475;28;20216;-56
2022/06/26 06:48:06;;;;;;;3.47;1.48;;;;;;;21.47;68.36;98512.69;4121150;28;20317;-54
2022/06/26 06:50:07;;;;;;;2.10;1.35;;;;;;;21.68;69.15;98519.38;4119962;28;20326;-56
2022/06/26 06:52:10;;;;;;;1.80;1.27;;;;;;;21.48;68.89;98520.72;4113561;28;20304;-57
2022/06/26 06:54:12;;;;;;;2.13;1.42;;;;;;;21.31;67.96;98525.41;4116902;28;20263;-55
2022/06/26 06:56:13;;;;;;;1.60;1.30;;;;;;;21.39;68.20;98528.19;4118410;28;20319;-58
2022/06/26 06:58:15;;;;;;;1.50;1.40;;;;;;;21.61;68.75;98530.94;4119212;28;20328;-57
2022/06/26 07:00:16;;;;;;;1.95;1.23;;;;;;;21.48;67.87;98525.47;4122943;28;20641;-54
2022/06/26 07:02:18;;;;;;;6.90;1.42;;;;;;;21.72;67.60;98514.81;4123883;28;20222;-54
2022/06/26 07:04:20;;;;;;;2.35;1.25;;;;;;;21.93;68.06;98511.13;4118727;28;21469;-57
2022/06/26 07:06:22;;;;;;;2.75;1.10;;;;;;;21.82;68.77;98520.06;4116969;28;20208;-58
2022/06/26 07:08:23;;;;;;;1.38;1.23;;;;;;;21.74;67.70;98512.50;4119962;28;20536;-56
2022/06/26 07:10:25;;;;;;;3.53;1.45;;;;;;;21.72;68.00;98510.03;4119142;28;20289;-55
2022/06/26 07:12:26;;;;;;;1.58;1.48;;;;;;;21.60;67.94;98528.47;4118019;28;20247;-58
2022/06/26 07:14:28;;;;;;;2.25;1.10;;;;;;;21.60;68.08;98528.47;4118541;28;21026;-58
2022/06/26 07:16:30;;;;;;;3.40;1.48;;;;;;;21.69;67.94;98524.63;4117669;28;20208;-57
2022/06/26 07:18:32;;;;;;;1.73;1.05;;;;;;;21.94;68.07;98526.69;4120241;28;20312;-57
2022/06/26 07:20:33;;;;;;;0.95;0.95;;;;;;;22.13;67.04;98529.19;4120190;28;20609;-57
2022/06/26 07:22:35;;;;;;;2.65;0.90;;;;;;;22.43;65.10;98526.31;4118710;28;20217;-56
2022/06/26 07:24:38;;;;;;;1.25;0.93;;;;;;;22.59;64.00;98526.66;4110958;28;20235;-57
2022/06/26 07:26:40;;;;;;;2.45;0.85;;;;;;;22.65;62.60;98533.72;4112882;28;20242;-55
2022/06/26 07:28:42;;;;;;;0.80;0.80;;;;;;;22.59;62.58;98533.06;4116378;28;20560;-57
2022/06/26 07:30:44;;;;;;;2.90;0.82;;;;;;;22.52;62.70;98531.91;4121216;28;20205;-58
2022/06/26 07:32:46;;;;;;;3.42;1.08;;;;;;;21.91;63.59;98526.50;4119189;28;20675;-60
2022/06/26 07:34:47;;;;;;;1.20;1.00;;;;;;;21.84;64.15;98538.13;4117918;28;21172;-57
2022/06/26 07:36:50;;;;;;;0.70;0.70;;;;;;;21.93;63.96;98529.78;4118106;28;20213;-60
2022/06/26 07:38:51;;;;;;;1.00;0.90;;;;;;;21.90;64.20;98533.25;4121178;28;22345;-54
2022/06/26 07:40:54;;;;;;;0.98;0.90;;;;;;;22.07;65.42;98533.28;4121424;28;20243;-60
2022/06/26 07:42:56;;;;;;;1.80;1.02;;;;;;;22.45;65.60;98534.38;4118098;28;20339;-55
2022/06/26 07:44:57;;;;;;;0.60;0.60;;;;;;;22.43;62.73;98537.47;4119817;28;20237;-58
2022/06/26 07:46:59;;;;;;;0.70;0.70;;;;;;;22.72;62.78;98526.50;4120093;28;20288;-55
2022/06/26 07:49:01;;;;;;;0.70;0.70;;;;;;;22.85;62.12;98528.28;4120662;28;20775;-55
2022/06/26 07:51:03;;;;;;;0.85;0.85;;;;;;;22.92;60.97;98527.81;4122245;28;20216;-54
2022/06/26 07:53:04;;;;;;;0.82;0.63;;;;;;;22.85;61.94;98531.09;4117751;28;20206;-54
2022/06/26 07:55:06;;;;;;;0.65;0.65;;;;;;;22.52;61.29;98523.53;4117198;28;20214;-58
2022/06/26 07:57:08;;;;;;;1.52;0.75;;;;;;;22.58;61.78;98517.47;4118709;28;20292;-57
2022/06/26 07:59:10;;;;;;;0.80;0.80;;;;;;;23.02;61.91;98522.72;4117266;28;20784;-56
2022/06/26 08:01:11;;;;;;;1.23;0.70;;;;;;;23.35;61.31;98511.81;4102429;28;20709;-54
2022/06/26 08:03:18;;;;;;;0.90;0.70;;;;;;;23.55;59.84;98514.72;4118458;28;20230;-55
2022/06/26 08:05:19;;;;;;;0.68;0.68;;;;;;;23.46;58.10;98522.31;4119235;28;20211;-55
2022/06/26 08:07:21;;;;;;;1.65;0.40;;;;;;;23.30;57.03;98517.59;4121983;28;20773;-54
2022/06/26 08:09:22;;;;;;;1.40;0.65;;;;;;;23.56;59.98;98516.34;4120328;28;20797;-54
2022/06/26 08:11:24;;;;;;;1.48;0.85;;;;;;;23.97;59.63;98524.13;4118653;28;20206;-55
2022/06/26 08:13:26;;;;;;;2.83;0.60;;;;;;;23.91;57.50;98511.47;4119304;28;20245;-55
2022/06/26 08:15:33;;;;;;;0.50;0.50;;;;;;;24.05;57.62;98513.69;4113907;28;20214;-54
2022/06/26 08:17:34;;;;;;;0.75;0.40;;;;;;;24.08;57.19;98521.44;4119553;28;20205;-54
2022/06/26 08:19:36;;;;;;;1.38;0.57;;;;;;;24.38;57.38;98523.03;4117241;28;20202;-55
2022/06/26 08:23:58;;;;;;;0.77;0.77;;;;;;;23.71;57.42;98524.19;4121860;28;20209;-54
2022/06/26 08:26:00;;;;;;;0.70;0.70;;;;;;;24.29;58.91;98530.69;4119046;28;20308;-55
2022/06/26 08:28:01;;;;;;;2.92;0.65;;;;;;;24.61;57.64;98529.97;4121157;28;20237;-55
2022/06/26 08:30:04;;;;;;;6.32;0.75;;;;;;;24.46;58.29;98522.16;4119585;28;20273;-54
2022/06/26 08:32:06;;;;;;;0.63;0.60;;;;;;;24.31;57.87;98522.75;4119893;28;20296;-54
2022/06/26 08:34:07;;;;;;;1.08;0.88;;;;;;;24.69;58.62;98537.50;4120574;28;20209;-54
2022/06/26 08:36:09;;;;;;;0.63;0.60;;;;;;;24.53;55.98;98530.03;4122671;28;20212;-54
2022/06/26 08:38:11;;;;;;;0.57;0.50;;;;;;;24.53;57.31;98533.63;4120050;28;20243;-54
2022/06/26 08:40:13;;;;;;;1.38;0.50;;;;;;;24.83;56.82;98540.84;4122207;28;20292;-55
2022/06/26 08:42:15;;;;;;;0.52;0.45;;;;;;;24.88;55.77;98537.84;4120095;28;20321;-55
2022/06/26 08:44:16;;;;;;;0.90;0.63;;;;;;;25.06;56.50;98539.31;4116710;28;20986;-55
2022/06/26 08:46:21;;;;;;;0.63;0.60;;;;;;;25.35;56.83;98542.03;4120147;28;20208;-54
2022/06/26 08:48:26;;;;;;;1.02;0.40;;;;;;;25.36;54.35;98545.63;4125017;28;20221;-54
2022/06/26 08:50:27;;;;;;;1.25;0.60;;;;;;;25.62;54.09;98549.81;4124897;28;20750;-55
2022/06/26 08:52:30;;;;;;;0.47;0.45;;;;;;;25.76;53.40;98536.28;4124518;28;20285;-55
2022/06/26 08:54:31;;;;;;;10.90;0.63;;;;;;;25.57;53.81;98544.44;4141896;28;20236;-54
2022/06/26 08:56:33;;;;;;;2.15;0.60;;;;;;;25.60;53.73;98526.91;4123810;28;20289;-54
2022/06/26 08:58:35;;;;;;;0.50;0.50;;;;;;;25.76;54.45;98535.47;4123458;28;20321;-54
2022/06/26 09:00:37;;;;;;;0.52;0.50;;;;;;;26.10;53.24;98541.50;4122459;28;20210;-55
2022/06/26 09:02:38;;;;;;;0.60;0.60;;;;;;;25.92;53.50;98551.28;4119739;28;20776;-56
2022/06/26 09:04:40;;;;;;;0.77;0.60;;;;;;;25.89;52.60;98540.78;4123346;28;20256;-54
2022/06/26 09:06:43;;;;;;;2.03;0.73;;;;;;;25.45;53.73;98541.59;4123583;28;20722;-55
2022/06/26 09:08:48;;;;;;;0.50;0.50;;;;;;;25.59;52.55;98536.47;4118722;28;20229;-55
2022/06/26 09:10:50;;;;;;;0.60;0.50;;;;;;;25.77;53.62;98537.94;4122467;28;20232;-54
2022/06/26 09:12:58;;;;;;;0.90;0.60;;;;;;;26.00;53.57;98536.31;4121582;28;20292;-56
2022/06/26 09:14:59;;;;;;;0.73;0.60;;;;;;;26.26;53.18;98534.00;4121892;28;20205;-56
2022/06/26 09:17:01;;;;;;;1.10;0.70;;;;;;;25.93;51.83;98543.72;4121361;28;20305;-55
2022/06/26 09:19:12;;;;;;;0.95;0.70;;;;;;;26.32;52.83;98543.81;4122257;28;20709;-55
2022/06/26 09:21:13;;;;;;;1.38;0.70;;;;;;;26.03;53.70;98549.66;4121672;28;20210;-56
2022/06/26 09:23:15;;;;;;;0.73;0.43;;;;;;;25.94;51.55;98554.56;4118783;28;20326;-55
2022/06/26 09:25:17;;;;;;;0.60;0.60;;;;;;;25.69;52.69;98552.03;4121696;28;20209;-56
2022/06/26 09:27:18;;;;;;;1.13;0.60;;;;;;;25.92;52.09;98544.88;4104262;28;20240;-55
2022/06/26 09:29:20;;;;;;;0.50;0.50;;;;;;;26.24;52.48;98541.94;4120398;28;20823;-55
2022/06/26 09:31:22;;;;;;;2.08;0.43;;;;;;;26.45;51.86;98537.03;4122183;28;22000;-56
2022/06/26 09:33:31;;;;;;;0.50;0.50;;;;;;;26.56;51.53;98543.84;4120102;28;20201;-56
2022/06/26 09:35:33;;;;;;;0.60;0.60;;;;;;;26.75;51.10;98538.41;4120560;28;20201;-55
2022/06/26 09:37:39;;;;;;;0.60;0.60;;;;;;;26.69;49.69;98542.63;4125228;28;20213;-56
2022/06/26 09:40:05;;;;;;;0.82;0.60;;;;;;;26.38;50.90;98542.41;4120003;28;20206;-56